sensor_id;sensor_type;location;lat;lon;timestamp;temperature;humidity
2447;DHT22;26430;48.818;9.244;2023-04-30T00:01:37;13.50;99.90
2447;DHT22;26430;48.818;9.244;2023-04-30T00:04:03;13.40;99.90
2447;DHT22;26430;48.818;9.244;2023-04-30T00:06:29;13.40;99.90
2447;DHT22;26430;48.818;9.244;2023-04-30T00:08:55;13.40;99.90
2447;DHT22;26430;48.818;9.244;2023-04-30T00:11:20;13.40;99.90
2447;DHT22;26430;48.818;9.244;2023-04-30T00:13:46;13.30;99.90
2447;DHT22;26430;48.818;9.244;2023-04-30T00:16:12;13.20;99.90
2447;DHT22;26430;48.818;9.244;2023-04-30T00:18:38;13.00;99.90
2447;DHT22;26430;48.818;9.244;2023-04-30T00:21:03;12.90;99.90
2447;DHT22;26430;48.818;9.244;2023-04-30T00:23:29;12.80;99.90
2447;DHT22;26430;48.818;9.244;2023-04-30T00:25:55;13.00;99.90
2447;DHT22;26430;48.818;9.244;2023-04-30T00:28:20;13.10;99.90
2447;DHT22;26430;48.818;9.244;2023-04-30T00:30:46;13.10;99.90
2447;DHT22;26430;48.818;9.244;2023-04-30T00:33:12;13.20;99.90
2447;DHT22;26430;48.818;9.244;2023-04-30T00:35:37;13.10;99.90
2447;DHT22;26430;48.818;9.244;2023-04-30T00:38:03;13.00;99.90
2447;DHT22;26430;48.818;9.244;2023-04-30T00:40:29;12.90;99.90
2447;DHT22;26430;48.818;9.244;2023-04-30T00:42:54;12.90;99.90
2447;DHT22;26430;48.818;9.244;2023-04-30T00:45:21;13.00;99.90
2447;DHT22;26430;48.818;9.244;2023-04-30T00:47:47;12.90;99.90
2447;DHT22;26430;48.818;9.244;2023-04-30T00:50:14;12.80;99.90
2447;DHT22;26430;48.818;9.244;2023-04-30T00:52:43;12.80;99.90
2447;DHT22;26430;48.818;9.244;2023-04-30T00:55:11;12.90;99.90
2447;DHT22;26430;48.818;9.244;2023-04-30T00:57:37;13.00;99.90
2447;DHT22;26430;48.818;9.244;2023-04-30T01:00:04;13.10;99.90
2447;DHT22;26430;48.818;9.244;2023-04-30T01:02:30;13.20;99.90
2447;DHT22;26430;48.818;9.244;2023-04-30T01:04:56;13.20;99.90
2447;DHT22;26430;48.818;9.244;2023-04-30T01:07:23;13.00;99.90
2447;DHT22;26430;48.818;9.244;2023-04-30T01:09:51;12.90;99.90
2447;DHT22;26430;48.818;9.244;2023-04-30T01:12:20;13.10;99.90
2447;DHT22;26430;48.818;9.244;2023-04-30T01:18:04;13.00;99.90
2447;DHT22;26430;48.818;9.244;2023-04-30T01:20:32;13.10;99.90
2447;DHT22;26430;48.818;9.244;2023-04-30T01:23:17;12.90;99.90
2447;DHT22;26430;48.818;9.244;2023-04-30T01:26:00;12.80;99.90
2447;DHT22;26430;48.818;9.244;2023-04-30T01:28:31;12.80;99.90
2447;DHT22;26430;48.818;9.244;2023-04-30T01:30:57;12.70;99.90
2447;DHT22;26430;48.818;9.244;2023-04-30T01:33:23;12.80;99.90
2447;DHT22;26430;48.818;9.244;2023-04-30T01:44:23;12.50;99.90
2447;DHT22;26430;48.818;9.244;2023-04-30T01:47:05;12.50;99.90
2447;DHT22;26430;48.818;9.244;2023-04-30T01:52:17;12.60;99.90
2447;DHT22;26430;48.818;9.244;2023-04-30T01:54:51;12.50;99.90
2447;DHT22;26430;48.818;9.244;2023-04-30T01:57:28;12.40;99.90
2447;DHT22;26430;48.818;9.244;2023-04-30T01:59:56;12.50;99.90
2447;DHT22;26430;48.818;9.244;2023-04-30T02:02:22;12.40;99.90
2447;DHT22;26430;48.818;9.244;2023-04-30T02:04:48;12.40;99.90
2447;DHT22;26430;48.818;9.244;2023-04-30T02:07:26;12.50;99.90
2447;DHT22;26430;48.818;9.244;2023-04-30T02:09:55;12.60;99.90
2447;DHT22;26430;48.818;9.244;2023-04-30T02:12:20;12.40;99.90
2447;DHT22;26430;48.818;9.244;2023-04-30T02:14:46;12.30;99.90
2447;DHT22;26430;48.818;9.244;2023-04-30T02:17:11;12.30;99.90
2447;DHT22;26430;48.818;9.244;2023-04-30T02:19:37;12.20;99.90
2447;DHT22;26430;48.818;9.244;2023-04-30T02:22:02;12.10;99.90
2447;DHT22;26430;48.818;9.244;2023-04-30T02:24:28;12.20;99.90
2447;DHT22;26430;48.818;9.244;2023-04-30T02:26:53;12.20;99.90
2447;DHT22;26430;48.818;9.244;2023-04-30T02:29:19;12.30;99.90
2447;DHT22;26430;48.818;9.244;2023-04-30T02:31:44;12.20;99.90
2447;DHT22;26430;48.818;9.244;2023-04-30T02:34:10;12.20;99.90
2447;DHT22;26430;48.818;9.244;2023-04-30T02:36:36;12.20;99.90
2447;DHT22;26430;48.818;9.244;2023-04-30T02:39:01;12.20;99.90
2447;DHT22;26430;48.818;9.244;2023-04-30T02:41:27;12.20;99.90
2447;DHT22;26430;48.818;9.244;2023-04-30T02:43:52;12.20;99.90
2447;DHT22;26430;48.818;9.244;2023-04-30T02:46:18;12.10;99.90
2447;DHT22;26430;48.818;9.244;2023-04-30T02:48:44;12.20;99.90
2447;DHT22;26430;48.818;9.244;2023-04-30T02:51:09;12.00;99.90
2447;DHT22;26430;48.818;9.244;2023-04-30T02:53:35;11.90;99.90
2447;DHT22;26430;48.818;9.244;2023-04-30T02:56:00;11.70;99.90
2447;DHT22;26430;48.818;9.244;2023-04-30T02:58:26;11.70;99.90
2447;DHT22;26430;48.818;9.244;2023-04-30T03:00:51;11.60;99.90
2447;DHT22;26430;48.818;9.244;2023-04-30T03:03:17;11.60;99.90
2447;DHT22;26430;48.818;9.244;2023-04-30T03:05:42;11.60;99.90
2447;DHT22;26430;48.818;9.244;2023-04-30T03:08:08;11.80;99.90
2447;DHT22;26430;48.818;9.244;2023-04-30T03:10:33;11.80;99.90
2447;DHT22;26430;48.818;9.244;2023-04-30T03:12:59;11.70;99.90
2447;DHT22;26430;48.818;9.244;2023-04-30T03:15:25;11.70;99.90
2447;DHT22;26430;48.818;9.244;2023-04-30T03:17:51;11.60;99.90
2447;DHT22;26430;48.818;9.244;2023-04-30T03:20:16;11.50;99.90
2447;DHT22;26430;48.818;9.244;2023-04-30T03:22:42;11.50;99.90
2447;DHT22;26430;48.818;9.244;2023-04-30T03:25:08;11.40;99.90
2447;DHT22;26430;48.818;9.244;2023-04-30T03:27:34;11.40;99.90
2447;DHT22;26430;48.818;9.244;2023-04-30T03:30:00;11.40;99.90
2447;DHT22;26430;48.818;9.244;2023-04-30T03:32:25;11.40;99.90
2447;DHT22;26430;48.818;9.244;2023-04-30T03:34:51;11.40;99.90
2447;DHT22;26430;48.818;9.244;2023-04-30T03:37:17;11.40;99.90
2447;DHT22;26430;48.818;9.244;2023-04-30T03:39:42;11.40;99.90
2447;DHT22;26430;48.818;9.244;2023-04-30T03:42:08;11.40;99.90
2447;DHT22;26430;48.818;9.244;2023-04-30T03:44:33;11.20;99.90
2447;DHT22;26430;48.818;9.244;2023-04-30T03:46:59;10.80;99.90
2447;DHT22;26430;48.818;9.244;2023-04-30T03:49:24;10.80;99.90
2447;DHT22;26430;48.818;9.244;2023-04-30T03:51:50;11.10;99.90
2447;DHT22;26430;48.818;9.244;2023-04-30T03:54:15;11.10;99.90
2447;DHT22;26430;48.818;9.244;2023-04-30T03:56:41;11.10;99.90
2447;DHT22;26430;48.818;9.244;2023-04-30T03:59:07;11.30;99.90
2447;DHT22;26430;48.818;9.244;2023-04-30T04:01:32;11.50;99.90
2447;DHT22;26430;48.818;9.244;2023-04-30T04:03:58;11.50;99.90
2447;DHT22;26430;48.818;9.244;2023-04-30T04:06:23;11.60;99.90
2447;DHT22;26430;48.818;9.244;2023-04-30T04:08:49;11.50;99.90
2447;DHT22;26430;48.818;9.244;2023-04-30T04:11:15;11.40;99.90
2447;DHT22;26430;48.818;9.244;2023-04-30T04:13:40;11.40;99.90
2447;DHT22;26430;48.818;9.244;2023-04-30T04:16:06;11.40;99.90
2447;DHT22;26430;48.818;9.244;2023-04-30T04:18:33;11.40;99.90
2447;DHT22;26430;48.818;9.244;2023-04-30T04:20:58;11.30;99.90
2447;DHT22;26430;48.818;9.244;2023-04-30T04:23:25;11.40;99.90
2447;DHT22;26430;48.818;9.244;2023-04-30T04:25:51;11.30;99.90
2447;DHT22;26430;48.818;9.244;2023-04-30T04:28:17;11.30;99.90
2447;DHT22;26430;48.818;9.244;2023-04-30T04:30:43;11.40;99.90
2447;DHT22;26430;48.818;9.244;2023-04-30T04:33:09;11.40;99.90
2447;DHT22;26430;48.818;9.244;2023-04-30T04:35:37;11.40;99.90
2447;DHT22;26430;48.818;9.244;2023-04-30T04:38:03;11.30;99.90
2447;DHT22;26430;48.818;9.244;2023-04-30T04:40:29;11.30;99.90
2447;DHT22;26430;48.818;9.244;2023-04-30T04:42:54;11.40;99.90
2447;DHT22;26430;48.818;9.244;2023-04-30T04:45:20;11.40;99.90
2447;DHT22;26430;48.818;9.244;2023-04-30T04:47:46;11.30;99.90
2447;DHT22;26430;48.818;9.244;2023-04-30T04:50:13;11.40;99.90
2447;DHT22;26430;48.818;9.244;2023-04-30T04:52:38;11.40;99.90
2447;DHT22;26430;48.818;9.244;2023-04-30T04:55:04;11.40;99.90
2447;DHT22;26430;48.818;9.244;2023-04-30T04:57:30;11.40;99.90
2447;DHT22;26430;48.818;9.244;2023-04-30T04:59:56;11.50;99.90
2447;DHT22;26430;48.818;9.244;2023-04-30T05:02:22;11.50;99.90
2447;DHT22;26430;48.818;9.244;2023-04-30T05:04:48;11.40;99.90
2447;DHT22;26430;48.818;9.244;2023-04-30T05:07:16;11.40;99.90
2447;DHT22;26430;48.818;9.244;2023-04-30T05:09:42;11.40;99.90
2447;DHT22;26430;48.818;9.244;2023-04-30T05:12:07;11.40;99.90
2447;DHT22;26430;48.818;9.244;2023-04-30T05:14:33;11.50;99.90
2447;DHT22;26430;48.818;9.244;2023-04-30T05:16:58;11.60;99.90
2447;DHT22;26430;48.818;9.244;2023-04-30T05:19:24;11.70;99.90
2447;DHT22;26430;48.818;9.244;2023-04-30T05:21:50;11.70;99.90
2447;DHT22;26430;48.818;9.244;2023-04-30T05:24:15;11.70;99.90
2447;DHT22;26430;48.818;9.244;2023-04-30T05:26:41;11.70;99.90
2447;DHT22;26430;48.818;9.244;2023-04-30T05:29:07;11.80;99.90
2447;DHT22;26430;48.818;9.244;2023-04-30T05:31:33;11.90;99.90
2447;DHT22;26430;48.818;9.244;2023-04-30T05:33:59;11.90;99.90
2447;DHT22;26430;48.818;9.244;2023-04-30T05:36:24;11.90;99.90
2447;DHT22;26430;48.818;9.244;2023-04-30T05:38:50;12.00;99.90
2447;DHT22;26430;48.818;9.244;2023-04-30T05:41:16;12.10;99.90
2447;DHT22;26430;48.818;9.244;2023-04-30T05:43:41;12.10;99.90
2447;DHT22;26430;48.818;9.244;2023-04-30T05:46:07;12.10;99.90
2447;DHT22;26430;48.818;9.244;2023-04-30T05:48:32;12.20;99.90
2447;DHT22;26430;48.818;9.244;2023-04-30T05:50:58;12.10;99.90
2447;DHT22;26430;48.818;9.244;2023-04-30T05:53:23;12.20;99.90
2447;DHT22;26430;48.818;9.244;2023-04-30T05:55:49;12.30;99.90
2447;DHT22;26430;48.818;9.244;2023-04-30T05:58:15;12.30;99.90
2447;DHT22;26430;48.818;9.244;2023-04-30T06:00:41;12.20;99.90
2447;DHT22;26430;48.818;9.244;2023-04-30T06:03:06;12.20;99.90
2447;DHT22;26430;48.818;9.244;2023-04-30T06:05:32;12.30;99.90
2447;DHT22;26430;48.818;9.244;2023-04-30T06:07:57;12.30;99.90
2447;DHT22;26430;48.818;9.244;2023-04-30T06:10:23;12.10;99.90
2447;DHT22;26430;48.818;9.244;2023-04-30T06:12:49;12.20;99.90
2447;DHT22;26430;48.818;9.244;2023-04-30T06:15:15;12.40;99.90
2447;DHT22;26430;48.818;9.244;2023-04-30T06:17:40;12.50;99.90
2447;DHT22;26430;48.818;9.244;2023-04-30T06:20:06;12.50;99.90
2447;DHT22;26430;48.818;9.244;2023-04-30T06:22:32;12.60;99.90
2447;DHT22;26430;48.818;9.244;2023-04-30T06:24:58;12.70;99.90
2447;DHT22;26430;48.818;9.244;2023-04-30T06:27:24;12.80;99.90
2447;DHT22;26430;48.818;9.244;2023-04-30T06:29:52;12.60;99.90
2447;DHT22;26430;48.818;9.244;2023-04-30T06:32:18;12.60;99.90
2447;DHT22;26430;48.818;9.244;2023-04-30T06:34:44;12.40;99.90
2447;DHT22;26430;48.818;9.244;2023-04-30T06:37:09;12.40;99.90
2447;DHT22;26430;48.818;9.244;2023-04-30T06:39:35;12.60;99.90
2447;DHT22;26430;48.818;9.244;2023-04-30T06:42:00;12.60;99.90
2447;DHT22;26430;48.818;9.244;2023-04-30T06:44:26;12.80;99.90
2447;DHT22;26430;48.818;9.244;2023-04-30T06:46:51;12.80;99.90
2447;DHT22;26430;48.818;9.244;2023-04-30T06:49:17;12.70;99.90
2447;DHT22;26430;48.818;9.244;2023-04-30T06:51:42;12.80;99.90
2447;DHT22;26430;48.818;9.244;2023-04-30T06:54:08;12.70;99.90
2447;DHT22;26430;48.818;9.244;2023-04-30T06:56:34;12.80;99.90
2447;DHT22;26430;48.818;9.244;2023-04-30T06:58:59;12.70;99.90
2447;DHT22;26430;48.818;9.244;2023-04-30T07:01:25;12.70;99.90
2447;DHT22;26430;48.818;9.244;2023-04-30T07:03:51;13.00;99.90
2447;DHT22;26430;48.818;9.244;2023-04-30T07:06:19;12.90;99.90
2447;DHT22;26430;48.818;9.244;2023-04-30T07:08:45;12.90;99.90
2447;DHT22;26430;48.818;9.244;2023-04-30T07:11:10;13.20;99.90
2447;DHT22;26430;48.818;9.244;2023-04-30T07:13:37;13.20;99.90
2447;DHT22;26430;48.818;9.244;2023-04-30T07:16:03;13.10;99.90
2447;DHT22;26430;48.818;9.244;2023-04-30T07:18:29;13.20;99.90
2447;DHT22;26430;48.818;9.244;2023-04-30T07:20:55;13.30;99.90
2447;DHT22;26430;48.818;9.244;2023-04-30T07:23:21;13.20;99.90
2447;DHT22;26430;48.818;9.244;2023-04-30T07:25:47;13.10;99.90
2447;DHT22;26430;48.818;9.244;2023-04-30T07:28:12;13.10;99.90
2447;DHT22;26430;48.818;9.244;2023-04-30T07:30:38;13.20;99.90
2447;DHT22;26430;48.818;9.244;2023-04-30T07:33:04;13.30;99.90
2447;DHT22;26430;48.818;9.244;2023-04-30T07:35:29;13.60;99.90
2447;DHT22;26430;48.818;9.244;2023-04-30T07:37:55;13.70;99.90
2447;DHT22;26430;48.818;9.244;2023-04-30T07:40:21;13.70;99.90
2447;DHT22;26430;48.818;9.244;2023-04-30T07:42:46;13.90;99.90
2447;DHT22;26430;48.818;9.244;2023-04-30T07:45:12;14.00;99.90
2447;DHT22;26430;48.818;9.244;2023-04-30T07:47:38;14.00;99.90
2447;DHT22;26430;48.818;9.244;2023-04-30T07:50:04;14.00;99.90
2447;DHT22;26430;48.818;9.244;2023-04-30T07:52:30;13.80;99.90
2447;DHT22;26430;48.818;9.244;2023-04-30T07:54:56;13.80;99.90
2447;DHT22;26430;48.818;9.244;2023-04-30T07:57:21;14.00;99.90
2447;DHT22;26430;48.818;9.244;2023-04-30T07:59:47;14.10;99.90
2447;DHT22;26430;48.818;9.244;2023-04-30T08:02:12;14.20;99.90
2447;DHT22;26430;48.818;9.244;2023-04-30T08:04:38;14.40;99.90
2447;DHT22;26430;48.818;9.244;2023-04-30T08:07:03;14.40;99.90
2447;DHT22;26430;48.818;9.244;2023-04-30T08:09:29;14.40;99.90
2447;DHT22;26430;48.818;9.244;2023-04-30T08:11:55;14.50;99.90
2447;DHT22;26430;48.818;9.244;2023-04-30T08:14:21;14.60;99.90
2447;DHT22;26430;48.818;9.244;2023-04-30T08:16:46;14.60;99.90
2447;DHT22;26430;48.818;9.244;2023-04-30T08:19:12;14.70;99.90
2447;DHT22;26430;48.818;9.244;2023-04-30T08:21:38;14.80;99.90
2447;DHT22;26430;48.818;9.244;2023-04-30T08:24:04;14.80;99.90
2447;DHT22;26430;48.818;9.244;2023-04-30T08:26:29;14.80;99.90
2447;DHT22;26430;48.818;9.244;2023-04-30T08:28:55;15.00;99.90
2447;DHT22;26430;48.818;9.244;2023-04-30T08:31:21;15.00;99.90
2447;DHT22;26430;48.818;9.244;2023-04-30T08:33:46;15.20;99.90
2447;DHT22;26430;48.818;9.244;2023-04-30T08:36:12;15.30;99.90
2447;DHT22;26430;48.818;9.244;2023-04-30T08:38:37;15.60;99.90
2447;DHT22;26430;48.818;9.244;2023-04-30T08:41:13;15.70;99.90
2447;DHT22;26430;48.818;9.244;2023-04-30T08:43:41;15.70;99.90
2447;DHT22;26430;48.818;9.244;2023-04-30T08:46:07;15.60;99.90
2447;DHT22;26430;48.818;9.244;2023-04-30T08:48:33;15.70;99.90
2447;DHT22;26430;48.818;9.244;2023-04-30T08:51:03;15.80;99.90
2447;DHT22;26430;48.818;9.244;2023-04-30T08:53:30;15.70;99.90
2447;DHT22;26430;48.818;9.244;2023-04-30T08:55:56;15.50;99.90
2447;DHT22;26430;48.818;9.244;2023-04-30T08:58:22;15.70;99.90
2447;DHT22;26430;48.818;9.244;2023-04-30T09:00:47;15.40;99.90
2447;DHT22;26430;48.818;9.244;2023-04-30T09:03:13;15.50;99.90
2447;DHT22;26430;48.818;9.244;2023-04-30T09:05:39;15.50;99.90
2447;DHT22;26430;48.818;9.244;2023-04-30T09:08:06;15.50;99.90
2447;DHT22;26430;48.818;9.244;2023-04-30T09:10:33;15.60;99.90
2447;DHT22;26430;48.818;9.244;2023-04-30T09:12:59;15.60;99.90
2447;DHT22;26430;48.818;9.244;2023-04-30T09:15:26;15.80;99.90
2447;DHT22;26430;48.818;9.244;2023-04-30T09:18:12;15.80;99.90
2447;DHT22;26430;48.818;9.244;2023-04-30T09:20:56;15.90;99.90
2447;DHT22;26430;48.818;9.244;2023-04-30T09:23:23;16.00;99.90
2447;DHT22;26430;48.818;9.244;2023-04-30T09:25:48;16.00;99.90
2447;DHT22;26430;48.818;9.244;2023-04-30T09:28:14;16.10;99.90
2447;DHT22;26430;48.818;9.244;2023-04-30T09:30:41;16.10;99.90
2447;DHT22;26430;48.818;9.244;2023-04-30T09:33:07;16.40;99.90
2447;DHT22;26430;48.818;9.244;2023-04-30T09:35:37;16.30;99.90
2447;DHT22;26430;48.818;9.244;2023-04-30T09:38:06;16.20;99.90
2447;DHT22;26430;48.818;9.244;2023-04-30T09:40:40;16.20;99.90
2447;DHT22;26430;48.818;9.244;2023-04-30T09:43:06;16.50;99.90
2447;DHT22;26430;48.818;9.244;2023-04-30T09:45:46;16.50;99.90
2447;DHT22;26430;48.818;9.244;2023-04-30T09:48:22;16.70;99.90
2447;DHT22;26430;48.818;9.244;2023-04-30T09:50:49;16.90;99.90
2447;DHT22;26430;48.818;9.244;2023-04-30T09:53:16;17.00;99.90
2447;DHT22;26430;48.818;9.244;2023-04-30T09:55:48;17.30;99.90
2447;DHT22;26430;48.818;9.244;2023-04-30T09:58:15;17.50;99.90
2447;DHT22;26430;48.818;9.244;2023-04-30T10:00:42;17.30;99.90
2447;DHT22;26430;48.818;9.244;2023-04-30T10:03:09;17.40;99.90
2447;DHT22;26430;48.818;9.244;2023-04-30T10:05:43;17.60;99.90
2447;DHT22;26430;48.818;9.244;2023-04-30T10:08:33;17.70;99.90
2447;DHT22;26430;48.818;9.244;2023-04-30T10:11:05;18.00;99.90
2447;DHT22;26430;48.818;9.244;2023-04-30T10:13:36;18.30;99.90
2447;DHT22;26430;48.818;9.244;2023-04-30T10:18:51;18.30;98.70
2447;DHT22;26430;48.818;9.244;2023-04-30T10:21:17;18.00;97.90
2447;DHT22;26430;48.818;9.244;2023-04-30T10:23:45;18.00;98.90
2447;DHT22;26430;48.818;9.244;2023-04-30T10:26:11;17.60;98.90
2447;DHT22;26430;48.818;9.244;2023-04-30T10:28:37;17.50;98.90
2447;DHT22;26430;48.818;9.244;2023-04-30T10:31:05;17.80;99.90
2447;DHT22;26430;48.818;9.244;2023-04-30T10:34:03;17.60;99.00
2447;DHT22;26430;48.818;9.244;2023-04-30T10:36:38;17.70;99.90
2447;DHT22;26430;48.818;9.244;2023-04-30T10:39:06;17.70;99.90
2447;DHT22;26430;48.818;9.244;2023-04-30T10:41:32;17.90;99.70
2447;DHT22;26430;48.818;9.244;2023-04-30T10:44:00;17.40;99.50
2447;DHT22;26430;48.818;9.244;2023-04-30T10:46:26;17.30;97.70
2447;DHT22;26430;48.818;9.244;2023-04-30T10:48:53;17.30;99.60
2447;DHT22;26430;48.818;9.244;2023-04-30T10:51:20;17.30;99.80
2447;DHT22;26430;48.818;9.244;2023-04-30T10:53:49;17.40;99.90
2447;DHT22;26430;48.818;9.244;2023-04-30T10:56:31;17.30;99.90
2447;DHT22;26430;48.818;9.244;2023-04-30T10:59:01;17.40;99.10
2447;DHT22;26430;48.818;9.244;2023-04-30T11:01:27;17.30;99.80
2447;DHT22;26430;48.818;9.244;2023-04-30T11:09:18;17.30;99.90
2447;DHT22;26430;48.818;9.244;2023-04-30T11:11:44;17.60;99.70
2447;DHT22;26430;48.818;9.244;2023-04-30T11:14:11;17.70;99.40
2447;DHT22;26430;48.818;9.244;2023-04-30T11:16:37;17.70;99.40
2447;DHT22;26430;48.818;9.244;2023-04-30T11:19:09;17.90;98.60
2447;DHT22;26430;48.818;9.244;2023-04-30T11:21:40;18.00;98.90
2447;DHT22;26430;48.818;9.244;2023-04-30T11:24:05;17.90;99.90
2447;DHT22;26430;48.818;9.244;2023-04-30T11:27:05;17.80;99.90
2447;DHT22;26430;48.818;9.244;2023-04-30T11:29:31;17.70;99.90
2447;DHT22;26430;48.818;9.244;2023-04-30T11:31:59;17.70;99.90
2447;DHT22;26430;48.818;9.244;2023-04-30T11:34:25;17.80;99.90
2447;DHT22;26430;48.818;9.244;2023-04-30T11:36:57;17.70;99.90
2447;DHT22;26430;48.818;9.244;2023-04-30T11:39:24;17.60;99.90
2447;DHT22;26430;48.818;9.244;2023-04-30T11:41:51;17.80;99.90
2447;DHT22;26430;48.818;9.244;2023-04-30T11:44:25;17.60;99.10
2447;DHT22;26430;48.818;9.244;2023-04-30T11:46:51;17.70;99.50
2447;DHT22;26430;48.818;9.244;2023-04-30T11:49:16;17.80;99.30
2447;DHT22;26430;48.818;9.244;2023-04-30T11:51:42;17.80;99.40
2447;DHT22;26430;48.818;9.244;2023-04-30T11:54:13;18.00;98.90
2447;DHT22;26430;48.818;9.244;2023-04-30T11:56:38;17.90;98.30
2447;DHT22;26430;48.818;9.244;2023-04-30T11:59:13;18.30;98.10
2447;DHT22;26430;48.818;9.244;2023-04-30T12:01:40;18.40;98.80
2447;DHT22;26430;48.818;9.244;2023-04-30T12:04:06;18.00;98.80
2447;DHT22;26430;48.818;9.244;2023-04-30T12:06:31;18.20;99.20
2447;DHT22;26430;48.818;9.244;2023-04-30T12:08:59;18.40;98.70
2447;DHT22;26430;48.818;9.244;2023-04-30T12:11:30;18.30;99.00
2447;DHT22;26430;48.818;9.244;2023-04-30T12:14:07;18.40;98.90
2447;DHT22;26430;48.818;9.244;2023-04-30T12:16:49;18.00;99.50
2447;DHT22;26430;48.818;9.244;2023-04-30T12:19:19;17.80;99.10
2447;DHT22;26430;48.818;9.244;2023-04-30T12:21:46;17.90;98.40
2447;DHT22;26430;48.818;9.244;2023-04-30T12:24:17;18.10;97.90
2447;DHT22;26430;48.818;9.244;2023-04-30T12:26:43;17.70;97.00
2447;DHT22;26430;48.818;9.244;2023-04-30T12:29:14;17.70;97.70
2447;DHT22;26430;48.818;9.244;2023-04-30T12:31:40;18.00;99.10
2447;DHT22;26430;48.818;9.244;2023-04-30T12:34:08;18.00;98.70
2447;DHT22;26430;48.818;9.244;2023-04-30T12:36:34;17.60;96.80
2447;DHT22;26430;48.818;9.244;2023-04-30T12:39:09;17.30;96.60
2447;DHT22;26430;48.818;9.244;2023-04-30T12:41:58;17.60;98.20
2447;DHT22;26430;48.818;9.244;2023-04-30T12:44:26;17.80;98.50
2447;DHT22;26430;48.818;9.244;2023-04-30T12:46:53;17.80;97.70
2447;DHT22;26430;48.818;9.244;2023-04-30T12:49:29;18.00;97.60
2447;DHT22;26430;48.818;9.244;2023-04-30T12:52:08;17.90;98.00
2447;DHT22;26430;48.818;9.244;2023-04-30T12:54:35;17.50;97.10
2447;DHT22;26430;48.818;9.244;2023-04-30T12:57:07;17.70;97.60
2447;DHT22;26430;48.818;9.244;2023-04-30T12:59:35;17.80;97.40
2447;DHT22;26430;48.818;9.244;2023-04-30T13:02:09;17.60;97.10
2447;DHT22;26430;48.818;9.244;2023-04-30T13:04:36;17.50;98.10
2447;DHT22;26430;48.818;9.244;2023-04-30T13:07:02;17.50;97.20
2447;DHT22;26430;48.818;9.244;2023-04-30T13:09:28;17.50;96.90
2447;DHT22;26430;48.818;9.244;2023-04-30T13:11:53;17.80;97.50
2447;DHT22;26430;48.818;9.244;2023-04-30T13:14:19;18.00;97.00
2447;DHT22;26430;48.818;9.244;2023-04-30T13:16:45;18.10;97.40
2447;DHT22;26430;48.818;9.244;2023-04-30T13:19:10;17.80;97.80
2447;DHT22;26430;48.818;9.244;2023-04-30T13:21:37;17.70;97.90
2447;DHT22;26430;48.818;9.244;2023-04-30T13:24:02;18.20;97.80
2447;DHT22;26430;48.818;9.244;2023-04-30T13:26:28;18.30;98.40
2447;DHT22;26430;48.818;9.244;2023-04-30T13:28:54;18.20;96.70
2447;DHT22;26430;48.818;9.244;2023-04-30T13:31:20;18.40;97.20
2447;DHT22;26430;48.818;9.244;2023-04-30T13:33:46;18.80;96.60
2447;DHT22;26430;48.818;9.244;2023-04-30T13:36:12;18.40;95.70
2447;DHT22;26430;48.818;9.244;2023-04-30T13:38:37;18.60;96.10
2447;DHT22;26430;48.818;9.244;2023-04-30T13:41:06;18.50;96.90
2447;DHT22;26430;48.818;9.244;2023-04-30T13:43:32;18.00;95.90
2447;DHT22;26430;48.818;9.244;2023-04-30T13:45:57;18.20;96.30
2447;DHT22;26430;48.818;9.244;2023-04-30T13:48:24;18.50;97.00
2447;DHT22;26430;48.818;9.244;2023-04-30T13:50:51;18.60;95.70
2447;DHT22;26430;48.818;9.244;2023-04-30T13:53:16;18.90;94.70
2447;DHT22;26430;48.818;9.244;2023-04-30T13:55:42;18.90;96.10
2447;DHT22;26430;48.818;9.244;2023-04-30T13:58:08;18.70;96.10
2447;DHT22;26430;48.818;9.244;2023-04-30T14:00:33;18.20;93.90
2447;DHT22;26430;48.818;9.244;2023-04-30T14:02:59;18.10;95.90
2447;DHT22;26430;48.818;9.244;2023-04-30T14:05:25;18.00;95.00
2447;DHT22;26430;48.818;9.244;2023-04-30T14:07:51;18.40;96.20
2447;DHT22;26430;48.818;9.244;2023-04-30T14:10:16;18.60;95.40
2447;DHT22;26430;48.818;9.244;2023-04-30T14:12:42;18.30;94.70
2447;DHT22;26430;48.818;9.244;2023-04-30T14:15:08;18.50;94.50
2447;DHT22;26430;48.818;9.244;2023-04-30T14:17:34;18.80;95.30
2447;DHT22;26430;48.818;9.244;2023-04-30T14:19:59;18.80;95.40
2447;DHT22;26430;48.818;9.244;2023-04-30T14:22:25;18.80;95.00
2447;DHT22;26430;48.818;9.244;2023-04-30T14:24:51;19.00;94.80
2447;DHT22;26430;48.818;9.244;2023-04-30T14:27:17;19.20;94.80
2447;DHT22;26430;48.818;9.244;2023-04-30T14:29:43;19.20;95.10
2447;DHT22;26430;48.818;9.244;2023-04-30T14:32:09;19.00;95.60
2447;DHT22;26430;48.818;9.244;2023-04-30T14:34:34;18.80;95.70
2447;DHT22;26430;48.818;9.244;2023-04-30T14:37:02;18.70;95.50
2447;DHT22;26430;48.818;9.244;2023-04-30T14:39:27;18.60;96.00
2447;DHT22;26430;48.818;9.244;2023-04-30T14:41:53;18.70;96.10
2447;DHT22;26430;48.818;9.244;2023-04-30T14:44:19;19.00;95.20
2447;DHT22;26430;48.818;9.244;2023-04-30T14:46:46;19.10;94.10
2447;DHT22;26430;48.818;9.244;2023-04-30T14:49:11;18.90;94.90
2447;DHT22;26430;48.818;9.244;2023-04-30T14:51:37;19.00;94.40
2447;DHT22;26430;48.818;9.244;2023-04-30T14:54:03;18.80;94.20
2447;DHT22;26430;48.818;9.244;2023-04-30T14:56:28;18.80;94.60
2447;DHT22;26430;48.818;9.244;2023-04-30T14:58:54;18.90;95.90
2447;DHT22;26430;48.818;9.244;2023-04-30T15:01:19;18.80;95.70
2447;DHT22;26430;48.818;9.244;2023-04-30T15:03:45;18.80;95.60
2447;DHT22;26430;48.818;9.244;2023-04-30T15:06:11;18.80;95.50
2447;DHT22;26430;48.818;9.244;2023-04-30T15:08:37;18.70;94.60
2447;DHT22;26430;48.818;9.244;2023-04-30T15:11:03;18.60;94.10
2447;DHT22;26430;48.818;9.244;2023-04-30T15:13:31;18.60;95.00
2447;DHT22;26430;48.818;9.244;2023-04-30T15:15:57;18.50;95.10
2447;DHT22;26430;48.818;9.244;2023-04-30T15:18:23;18.70;93.90
2447;DHT22;26430;48.818;9.244;2023-04-30T15:20:49;18.90;94.10
2447;DHT22;26430;48.818;9.244;2023-04-30T15:23:14;18.80;93.80
2447;DHT22;26430;48.818;9.244;2023-04-30T15:25:40;18.70;94.20
2447;DHT22;26430;48.818;9.244;2023-04-30T15:28:07;18.50;93.70
2447;DHT22;26430;48.818;9.244;2023-04-30T15:30:32;18.50;94.20
2447;DHT22;26430;48.818;9.244;2023-04-30T15:32:58;18.60;93.90
2447;DHT22;26430;48.818;9.244;2023-04-30T15:35:25;18.50;93.30
2447;DHT22;26430;48.818;9.244;2023-04-30T15:37:51;18.60;93.60
2447;DHT22;26430;48.818;9.244;2023-04-30T15:40:17;18.40;93.20
2447;DHT22;26430;48.818;9.244;2023-04-30T15:42:43;17.90;93.40
2447;DHT22;26430;48.818;9.244;2023-04-30T15:45:09;17.80;93.00
2447;DHT22;26430;48.818;9.244;2023-04-30T15:47:36;18.00;94.60
2447;DHT22;26430;48.818;9.244;2023-04-30T15:50:02;18.10;94.60
2447;DHT22;26430;48.818;9.244;2023-04-30T15:52:27;18.30;94.40
2447;DHT22;26430;48.818;9.244;2023-04-30T15:54:53;18.50;93.90
2447;DHT22;26430;48.818;9.244;2023-04-30T15:57:18;18.20;93.80
2447;DHT22;26430;48.818;9.244;2023-04-30T15:59:44;18.20;94.40
2447;DHT22;26430;48.818;9.244;2023-04-30T16:02:09;18.10;95.50
2447;DHT22;26430;48.818;9.244;2023-04-30T16:04:35;17.80;93.90
2447;DHT22;26430;48.818;9.244;2023-04-30T16:07:01;18.00;94.70